Time;durP1;ratioP1;P1;durP2;ratioP2;P2;SDS_P1;SDS_P2;PMS_P1;PMS_P2;Temp;Humidity;BMP_temperature;BMP_pressure;BME280_temperature;BME280_humidity;BME280_pressure;Samples;Min_cycle;Max_cycle;Signal;HPM_P1;HPM_P2
2021/12/18 00:01:31;;;;;;;1.27;0.30;;;;;;;1.47;76.27;99843.80;1741368;79;21080;-57
2021/12/18 00:03:57;;;;;;;0.83;0.30;;;;;;;1.48;76.29;99856.63;1738386;79;21564;-56
2021/12/18 00:06:27;;;;;;;0.70;0.50;;;;;;;1.49;76.30;99849.10;1737942;79;21400;-59
2021/12/18 00:08:52;;;;;;;0.67;0.30;;;;;;;1.51;76.33;99845.99;1720802;81;21080;-55
2021/12/18 00:11:20;;;;;;;1.50;0.37;;;;;;;1.53;76.33;99846.86;1733180;79;21092;-57
2021/12/18 00:13:49;;;;;;;0.80;0.30;;;;;;;1.54;76.24;99852.58;1736970;79;21088;-58
2021/12/18 00:16:15;;;;;;;1.47;0.30;;;;;;;1.51;76.15;99849.53;1740980;79;20977;-58
2021/12/18 00:18:44;;;;;;;0.70;0.30;;;;;;;1.51;76.15;99850.85;1740086;79;21704;-58
2021/12/18 00:21:14;;;;;;;0.97;0.40;;;;;;;1.50;76.17;99859.70;1739166;79;22529;-55
2021/12/18 00:23:38;;;;;;;2.67;0.30;;;;;;;1.49;75.95;99853.96;1738686;79;21085;-57
2021/12/18 00:26:04;;;;;;;0.60;0.30;;;;;;;1.47;75.93;99860.16;1734333;79;21063;-58
2021/12/18 00:28:31;;;;;;;0.97;0.30;;;;;;;1.45;75.90;99861.95;1738859;79;21139;-57
2021/12/18 00:30:57;;;;;;;0.50;0.20;;;;;;;1.46;76.00;99859.28;1734994;79;21445;-57
2021/12/18 00:33:25;;;;;;;1.00;0.30;;;;;;;1.47;75.98;99858.39;1735486;79;21244;-54
2021/12/18 00:35:52;;;;;;;0.50;0.30;;;;;;;1.50;76.03;99866.78;1735506;79;21101;-54
2021/12/18 00:38:18;;;;;;;0.80;0.30;;;;;;;1.53;76.06;99868.09;1734816;79;21152;-57
2021/12/18 00:41:00;;;;;;;0.50;0.30;;;;;;;1.55;75.87;99870.70;1739538;79;21167;-55
2021/12/18 00:43:33;;;;;;;0.97;0.30;;;;;;;1.53;75.76;99870.73;1731280;79;21668;-54
2021/12/18 00:45:53;;;;;;;0.80;0.30;;;;;;;1.51;75.77;99864.56;1736319;79;21140;-57
2021/12/18 00:48:20;;;;;;;0.33;0.20;;;;;;;1.49;75.67;99872.53;1735964;79;21036;-57
2021/12/18 00:50:47;;;;;;;0.53;0.30;;;;;;;1.46;75.65;99871.22;1740536;79;20949;-54
2021/12/18 00:53:14;;;;;;;0.40;0.30;;;;;;;1.47;75.53;99866.35;1734731;79;21096;-55
2021/12/18 00:55:40;;;;;;;0.47;0.37;;;;;;;1.45;75.55;99879.19;1736178;79;21124;-57
2021/12/18 00:58:07;;;;;;;1.43;0.30;;;;;;;1.44;75.58;99877.02;1735484;79;21087;-56
2021/12/18 01:00:34;;;;;;;0.93;0.30;;;;;;;1.44;75.62;99880.11;1737514;79;23014;-56
2021/12/18 01:03:02;;;;;;;2.00;0.40;;;;;;;1.43;75.62;99884.53;1767398;78;21412;-56
2021/12/18 01:05:30;;;;;;;0.60;0.30;;;;;;;1.43;75.64;99890.28;1773430;78;20931;-54
2021/12/18 01:07:58;;;;;;;0.50;0.30;;;;;;;1.40;75.60;99878.37;1772306;79;20919;-57
2021/12/18 01:10:43;;;;;;;0.67;0.43;;;;;;;1.41;75.68;99881.02;1771000;78;22384;-54
2021/12/18 01:13:00;;;;;;;0.20;0.20;;;;;;;1.43;75.68;99880.55;1767106;78;20953;-57
2021/12/18 01:23:24;;;;;;;1.10;0.30;;;;;;;1.46;75.67;99883.16;1767516;78;22840;-57
2021/12/18 01:25:52;;;;;;;0.20;0.20;;;;;;;1.45;75.51;99892.45;1768795;78;20996;-56
2021/12/18 01:28:18;;;;;;;0.80;0.20;;;;;;;1.43;75.65;99894.27;1764588;78;21557;-58
2021/12/18 01:30:45;;;;;;;2.63;0.20;;;;;;;1.43;75.68;99896.92;1749702;79;21595;-57
2021/12/18 01:33:12;;;;;;;0.93;0.20;;;;;;;1.41;75.52;99893.39;1767936;78;21091;-58
2021/12/18 01:35:38;;;;;;;1.47;0.43;;;;;;;1.38;75.55;99892.96;1765666;78;21150;-56
2021/12/18 01:38:04;;;;;;;1.23;0.27;;;;;;;1.36;75.56;99892.09;1744995;79;21115;-55
2021/12/18 01:40:32;;;;;;;1.53;0.10;;;;;;;1.35;75.58;99894.34;1768985;78;21058;-56
2021/12/18 01:46:03;;;;;;;0.33;0.10;;;;;;;1.35;75.64;99899.64;1769845;78;20965;-57
2021/12/18 01:53:47;;;;;;;0.50;0.20;;;;;;;1.34;75.58;99900.98;1768593;78;21604;-55
2021/12/18 01:56:14;;;;;;;0.30;0.20;;;;;;;1.33;75.66;99907.17;1768438;78;20985;-57
2021/12/18 01:58:44;;;;;;;0.57;0.30;;;;;;;1.32;75.72;99906.28;1768292;78;21058;-58
2021/12/18 02:01:09;;;;;;;0.33;0.20;;;;;;;1.31;75.78;99906.30;1766979;78;21146;-58
2021/12/18 02:03:36;;;;;;;0.70;0.30;;;;;;;1.29;75.81;99902.33;1762027;78;20929;-58
2021/12/18 02:06:02;;;;;;;1.33;0.23;;;;;;;1.27;75.71;99905.91;1762253;78;20921;-57
2021/12/18 02:08:30;;;;;;;0.30;0.20;;;;;;;1.24;75.87;99910.78;1761993;78;20882;-56
2021/12/18 02:11:11;;;;;;;0.33;0.20;;;;;;;1.23;75.78;99914.77;1764497;78;20973;-54
2021/12/18 02:13:39;;;;;;;1.67;0.20;;;;;;;1.18;75.80;99901.55;1755571;79;21647;-56
2021/12/18 02:21:27;;;;;;;0.30;0.20;;;;;;;1.13;75.84;99919.25;1756586;78;21114;-57
2021/12/18 02:23:53;;;;;;;0.87;0.30;;;;;;;1.08;75.85;99914.00;1761258;78;22148;-54
2021/12/18 02:26:22;;;;;;;0.40;0.20;;;;;;;1.08;75.92;99914.00;1761128;78;21279;-53
2021/12/18 02:28:49;;;;;;;0.23;0.20;;;;;;;1.08;76.08;99913.12;1761550;78;22026;-57
2021/12/18 02:31:16;;;;;;;1.33;0.30;;;;;;;1.11;76.11;99917.05;1763097;78;20973;-57
2021/12/18 02:33:43;;;;;;;1.90;0.20;;;;;;;1.13;76.05;99914.83;1762574;78;20875;-58
2021/12/18 02:36:12;;;;;;;0.40;0.20;;;;;;;1.14;75.95;99920.57;1763138;78;20913;-58
2021/12/18 02:39:02;;;;;;;1.40;0.20;;;;;;;1.12;75.81;99922.34;1768395;78;21106;-57
2021/12/18 02:44:03;;;;;;;0.23;0.10;;;;;;;1.11;75.67;99928.53;1759557;78;20941;-57
2021/12/18 02:46:31;;;;;;;0.70;0.17;;;;;;;1.10;75.47;99925.92;1762416;78;20903;-56
2021/12/18 02:48:57;;;;;;;0.23;0.10;;;;;;;1.10;75.56;99937.41;1766322;78;20918;-57
2021/12/18 02:51:24;;;;;;;0.30;0.10;;;;;;;1.11;75.35;99940.47;1763076;78;21102;-56
2021/12/18 02:53:52;;;;;;;0.40;0.20;;;;;;;1.11;75.36;99940.91;1762051;78;20945;-57
2021/12/18 02:56:23;;;;;;;1.10;0.17;;;;;;;1.08;75.20;99937.86;1759588;78;21348;-58
2021/12/18 02:58:51;;;;;;;0.30;0.20;;;;;;;1.09;75.10;99945.37;1767666;78;20937;-56
2021/12/18 03:01:22;;;;;;;0.77;0.20;;;;;;;1.06;74.86;99946.26;1761491;78;20977;-57
2021/12/18 03:03:49;;;;;;;0.40;0.20;;;;;;;1.05;74.73;99952.45;1763064;78;21044;-57
2021/12/18 03:24:36;;;;;;;0.20;0.10;;;;;;;1.05;74.12;99960.41;1760913;78;21001;-57
2021/12/18 03:27:02;;;;;;;0.30;0.10;;;;;;;1.04;73.92;99957.31;1757387;78;21438;-56
2021/12/18 03:29:29;;;;;;;0.20;0.10;;;;;;;1.04;73.89;99965.70;1755691;78;22970;-56
2021/12/18 03:31:55;;;;;;;0.30;0.10;;;;;;;1.03;74.00;99974.55;1760244;78;21163;-57
2021/12/18 03:34:21;;;;;;;0.40;0.13;;;;;;;1.03;74.00;99977.20;1757129;78;21048;-58
2021/12/18 03:36:50;;;;;;;1.30;0.20;;;;;;;1.04;73.92;99984.27;1759702;78;21060;-57
2021/12/18 03:39:16;;;;;;;0.70;0.20;;;;;;;1.01;74.00;99977.23;1756245;78;21442;-57
2021/12/18 03:41:44;;;;;;;0.27;0.13;;;;;;;1.00;74.11;99979.89;1756001;78;22838;-57
2021/12/18 03:44:11;;;;;;;0.27;0.20;;;;;;;1.00;74.22;99986.07;1760776;78;21109;-58
2021/12/18 03:46:38;;;;;;;0.27;0.10;;;;;;;0.99;74.28;99988.73;1763588;78;21045;-57
2021/12/18 03:49:05;;;;;;;0.57;0.10;;;;;;;0.99;74.48;99994.91;1761320;78;21072;-56
2021/12/18 03:51:31;;;;;;;0.30;0.10;;;;;;;1.00;74.59;99995.79;1760801;78;21056;-57
2021/12/18 03:53:57;;;;;;;0.30;0.10;;;;;;;1.00;74.70;99990.48;1759086;78;21415;-57
2021/12/18 03:56:23;;;;;;;0.40;0.20;;;;;;;0.97;74.86;99992.70;1762572;78;22639;-57
2021/12/18 03:58:50;;;;;;;0.27;0.10;;;;;;;0.96;75.07;99994.03;1760028;78;22023;-58
2021/12/18 04:01:16;;;;;;;0.20;0.17;;;;;;;0.95;75.23;100000.22;1757684;78;21159;-57
2021/12/18 04:03:43;;;;;;;3.03;0.20;;;;;;;0.92;75.28;99994.95;1757893;78;21116;-57
2021/12/18 04:06:11;;;;;;;0.20;0.10;;;;;;;0.89;75.40;100001.14;1759080;78;21079;-58
2021/12/18 04:08:38;;;;;;;0.20;0.10;;;;;;;0.90;75.49;100008.66;1758166;78;21045;-58
2021/12/18 04:11:04;;;;;;;0.23;0.10;;;;;;;0.90;75.48;100007.33;1757930;79;21000;-57
2021/12/18 04:13:31;;;;;;;0.20;0.10;;;;;;;0.86;75.57;100008.22;1758025;78;21063;-57
2021/12/18 04:15:57;;;;;;;0.20;0.10;;;;;;;0.84;75.54;100008.25;1758698;78;21067;-57
2021/12/18 04:18:24;;;;;;;0.30;0.10;;;;;;;0.82;75.57;100006.05;1759457;78;21044;-57
2021/12/18 04:20:50;;;;;;;0.40;0.03;;;;;;;0.81;75.59;100010.02;1754286;78;21234;-58
2021/12/18 04:23:16;;;;;;;0.30;0.10;;;;;;;0.79;75.65;100016.65;1755990;78;21052;-58
2021/12/18 04:25:43;;;;;;;0.10;0.10;;;;;;;0.77;75.71;100013.59;1755503;78;21113;-58
2021/12/18 04:28:09;;;;;;;0.20;0.10;;;;;;;0.77;75.83;100016.24;1754065;78;21414;-56
2021/12/18 04:30:35;;;;;;;0.30;0.20;;;;;;;0.76;75.84;100011.38;1759110;78;22282;-57
2021/12/18 04:33:02;;;;;;;0.30;0.10;;;;;;;0.75;75.57;100018.45;1758066;78;21064;-57
2021/12/18 04:35:29;;;;;;;0.20;0.10;;;;;;;0.74;75.64;100014.48;1755386;78;21034;-56
2021/12/18 04:37:55;;;;;;;0.50;0.20;;;;;;;0.71;75.40;100023.31;1752208;79;21088;-57
2021/12/18 04:40:26;;;;;;;0.40;0.20;;;;;;;0.71;75.54;100018.02;1738473;79;20998;-57
2021/12/18 04:42:50;;;;;;;0.40;0.20;;;;;;;0.72;74.90;100025.08;1736935;79;21755;-57
2021/12/18 04:45:18;;;;;;;0.43;0.10;;;;;;;0.71;74.12;100030.37;1732232;79;21371;-58
2021/12/18 04:47:44;;;;;;;0.30;0.10;;;;;;;0.70;74.19;100031.26;1735532;79;21833;-57
2021/12/18 04:50:10;;;;;;;0.27;0.20;;;;;;;0.71;73.91;100029.05;1736738;79;21132;-57
2021/12/18 04:52:37;;;;;;;0.17;0.10;;;;;;;0.71;73.64;100035.23;1735139;79;21029;-57
2021/12/18 04:55:05;;;;;;;0.17;0.00;;;;;;;0.70;73.57;100025.52;1734531;79;21092;-57
2021/12/18 04:57:31;;;;;;;0.20;0.10;;;;;;;0.71;72.75;100031.70;1734849;79;21448;-56
2021/12/18 04:59:58;;;;;;;0.20;0.10;;;;;;;0.70;72.51;100033.47;1733454;79;21530;-56
2021/12/18 05:02:35;;;;;;;0.53;0.10;;;;;;;0.68;72.39;100035.71;1733042;79;21512;-58
2021/12/18 05:04:53;;;;;;;0.20;0.10;;;;;;;0.66;71.52;100050.28;1733274;79;21073;-57
2021/12/18 05:07:20;;;;;;;0.17;0.10;;;;;;;0.63;71.27;100041.01;1735428;79;22725;-57
2021/12/18 05:09:46;;;;;;;0.20;0.10;;;;;;;0.61;71.17;100047.19;1736262;79;21468;-57
2021/12/18 05:12:14;;;;;;;0.60;0.40;;;;;;;0.59;71.29;100052.52;1733286;79;21379;-57
2021/12/18 05:14:41;;;;;;;1.87;0.17;;;;;;;0.59;71.48;100047.66;1733866;79;21547;-57
2021/12/18 05:17:08;;;;;;;4.83;0.20;;;;;;;0.60;71.78;100056.91;1734235;79;21071;-58
2021/12/18 05:19:36;;;;;;;0.20;0.10;;;;;;;0.63;72.07;100059.55;1732581;79;21112;-57
2021/12/18 05:22:03;;;;;;;0.30;0.20;;;;;;;0.65;72.25;100061.76;1732821;79;21051;-57
2021/12/18 05:24:30;;;;;;;0.40;0.10;;;;;;;0.65;72.53;100056.46;1738982;79;20926;-58
2021/12/18 05:26:57;;;;;;;1.90;0.20;;;;;;;0.70;72.80;100065.27;1738344;79;22135;-56
2021/12/18 05:29:24;;;;;;;0.30;0.17;;;;;;;0.74;73.28;100070.13;1739667;79;22126;-56
2021/12/18 05:31:50;;;;;;;0.40;0.10;;;;;;;0.73;73.99;100077.63;1740484;79;21392;-57
2021/12/18 05:34:32;;;;;;;0.23;0.10;;;;;;;0.70;75.20;100069.67;1735852;79;21494;-57
2021/12/18 05:37:14;;;;;;;0.50;0.20;;;;;;;0.61;75.42;100070.59;1735690;79;21025;-57
2021/12/18 05:39:20;;;;;;;0.30;0.10;;;;;;;0.55;75.77;100082.98;1732614;79;21333;-57
2021/12/18 05:41:49;;;;;;;0.40;0.20;;;;;;;0.52;76.23;100090.92;1735042;79;20929;-57
2021/12/18 05:44:23;;;;;;;0.50;0.10;;;;;;;0.52;76.55;100094.89;1738189;79;21086;-57
2021/12/18 05:46:50;;;;;;;0.40;0.20;;;;;;;0.55;76.82;100102.41;1736203;79;20957;-58
2021/12/18 05:49:17;;;;;;;0.40;0.30;;;;;;;0.58;77.11;100105.06;1736423;79;20925;-58
2021/12/18 05:51:43;;;;;;;2.10;0.30;;;;;;;0.61;77.34;100105.47;1737675;79;20933;-57
2021/12/18 05:54:10;;;;;;;0.20;0.20;;;;;;;0.62;77.63;100116.06;1739480;79;20929;-57
2021/12/18 05:56:37;;;;;;;0.33;0.20;;;;;;;0.58;77.82;100110.80;1737351;79;21077;-57
2021/12/18 05:59:04;;;;;;;2.63;0.30;;;;;;;0.56;78.02;100111.23;1738510;79;20925;-57
2021/12/18 06:01:31;;;;;;;0.40;0.20;;;;;;;0.57;78.19;100110.35;1740594;79;21026;-57
2021/12/18 06:03:57;;;;;;;0.73;0.27;;;;;;;0.59;78.27;100108.59;1722634;79;21073;-59
2021/12/18 06:06:24;;;;;;;0.30;0.30;;;;;;;0.61;78.34;100105.47;1710969;81;21059;-59
2021/12/18 06:08:51;;;;;;;0.50;0.23;;;;;;;0.61;78.32;100114.30;1712356;81;22160;-58
2021/12/18 06:11:20;;;;;;;1.00;0.30;;;;;;;0.60;78.33;100108.56;1710894;81;20975;-59
2021/12/18 06:13:49;;;;;;;0.40;0.30;;;;;;;0.60;78.35;100115.18;1713071;81;21043;-57
2021/12/18 06:16:16;;;;;;;0.33;0.27;;;;;;;0.62;78.55;100129.75;1712936;81;21081;-57
2021/12/18 06:18:45;;;;;;;0.50;0.37;;;;;;;0.61;78.69;100122.25;1720896;81;21070;-57
2021/12/18 06:21:15;;;;;;;1.00;0.40;;;;;;;0.61;78.98;100130.20;1716722;81;22218;-59
2021/12/18 06:23:42;;;;;;;0.47;0.30;;;;;;;0.62;78.78;100120.04;1720143;81;21125;-58
2021/12/18 06:26:09;;;;;;;0.50;0.30;;;;;;;0.62;78.59;100113.86;1720729;81;21330;-58
2021/12/18 06:28:35;;;;;;;1.10;0.20;;;;;;;0.64;78.38;100114.30;1716423;81;21061;-58
2021/12/18 06:31:02;;;;;;;0.50;0.20;;;;;;;0.67;78.02;100112.98;1709931;81;21594;-60
2021/12/18 06:33:29;;;;;;;0.93;0.30;;;;;;;0.67;76.88;100120.93;1718238;81;21137;-59
2021/12/18 06:35:55;;;;;;;0.70;0.27;;;;;;;0.64;76.55;100128.87;1711720;81;21058;-59
2021/12/18 06:38:22;;;;;;;0.50;0.30;;;;;;;0.63;76.50;100123.58;1713147;81;21095;-58
2021/12/18 06:40:48;;;;;;;0.57;0.20;;;;;;;0.62;76.03;100129.31;1712499;81;21528;-59
2021/12/18 06:43:16;;;;;;;1.07;0.10;;;;;;;0.62;76.00;100129.31;1715916;81;21077;-59
2021/12/18 06:45:43;;;;;;;0.50;0.30;;;;;;;0.64;75.40;100124.91;1708752;82;21808;-59
2021/12/18 06:48:09;;;;;;;0.30;0.10;;;;;;;0.63;74.54;100126.22;1723640;81;21347;-61
2021/12/18 06:50:36;;;;;;;0.40;0.10;;;;;;;0.59;73.88;100138.61;1714902;81;21051;-59
2021/12/18 06:53:03;;;;;;;4.27;0.80;;;;;;;0.54;73.91;100139.48;1689339;82;21120;-60
2021/12/18 06:55:30;;;;;;;0.80;0.50;;;;;;;0.51;74.09;100138.19;1709592;81;21694;-60
2021/12/18 06:57:59;;;;;;;0.90;0.30;;;;;;;0.50;74.06;100140.39;1718133;81;22107;-60
2021/12/18 07:00:26;;;;;;;0.50;0.30;;;;;;;0.48;74.05;100139.06;1703647;81;21119;-60
2021/12/18 07:02:54;;;;;;;1.13;0.37;;;;;;;0.49;74.21;100139.95;1714379;81;21074;-59
2021/12/18 07:05:20;;;;;;;3.33;0.30;;;;;;;0.49;74.33;100143.48;1713844;81;21193;-59
2021/12/18 07:07:47;;;;;;;1.13;0.30;;;;;;;0.52;74.32;100143.45;1738043;81;21104;-60
2021/12/18 07:10:14;;;;;;;1.50;0.37;;;;;;;0.54;74.25;100139.05;1735411;81;23118;-58
2021/12/18 07:12:42;;;;;;;0.87;0.40;;;;;;;0.53;74.35;100138.60;1738030;81;21127;-60
2021/12/18 07:15:10;;;;;;;0.90;0.50;;;;;;;0.55;74.54;100136.84;1738031;81;21064;-59
2021/12/18 07:17:38;;;;;;;1.10;0.40;;;;;;;0.62;74.67;100131.96;1735640;81;21040;-58
2021/12/18 07:20:06;;;;;;;0.87;0.43;;;;;;;0.69;74.72;100136.80;1736242;81;21072;-59
2021/12/18 07:22:32;;;;;;;0.73;0.40;;;;;;;0.73;74.76;100138.13;1737362;81;21133;-60
2021/12/18 07:24:59;;;;;;;1.67;0.47;;;;;;;0.77;74.95;100138.13;1745709;81;21096;-59
2021/12/18 07:27:25;;;;;;;0.50;0.30;;;;;;;0.77;75.30;100148.73;1744566;81;21578;-58
2021/12/18 07:29:52;;;;;;;0.53;0.40;;;;;;;0.74;75.73;100149.17;1737725;81;21061;-59
2021/12/18 07:32:19;;;;;;;0.50;0.33;;;;;;;0.74;76.35;100152.26;1740563;81;21652;-59
2021/12/18 07:34:45;;;;;;;0.93;0.33;;;;;;;0.72;76.79;100153.58;1741870;81;21136;-62
2021/12/18 07:37:11;;;;;;;1.43;0.33;;;;;;;0.69;77.16;100164.17;1738126;81;21059;-59
2021/12/18 07:39:37;;;;;;;1.07;0.33;;;;;;;0.65;77.63;100162.87;1741650;81;21084;-58
2021/12/18 07:42:04;;;;;;;0.40;0.30;;;;;;;0.65;78.00;100161.55;1715706;81;21592;-58
2021/12/18 07:44:31;;;;;;;0.63;0.37;;;;;;;0.67;78.36;100178.34;1741563;81;21052;-58
2021/12/18 07:46:57;;;;;;;1.13;0.73;;;;;;;0.68;78.76;100170.83;1741666;81;21362;-58
2021/12/18 07:49:23;;;;;;;0.70;0.40;;;;;;;0.65;79.07;100170.38;1742294;81;21060;-58
2021/12/18 07:51:49;;;;;;;0.70;0.40;;;;;;;0.63;79.31;100172.58;1739435;81;21537;-58
2021/12/18 07:54:16;;;;;;;0.50;0.40;;;;;;;0.63;79.56;100168.61;1738815;81;21217;-59
2021/12/18 07:56:42;;;;;;;0.60;0.33;;;;;;;0.64;79.85;100173.91;1736954;81;21167;-58
2021/12/18 07:59:08;;;;;;;0.57;0.37;;;;;;;0.70;79.99;100180.95;1736981;81;21144;-58
2021/12/18 08:01:36;;;;;;;0.50;0.37;;;;;;;0.71;80.08;100176.10;1741204;81;20930;-58
2021/12/18 08:04:04;;;;;;;0.50;0.40;;;;;;;0.71;80.24;100186.26;1742672;81;20953;-58
2021/12/18 08:06:32;;;;;;;0.80;0.40;;;;;;;0.69;80.34;100190.67;1742826;81;20989;-57
2021/12/18 08:08:58;;;;;;;0.90;0.50;;;;;;;0.66;80.49;100188.48;1742892;81;21012;-58
2021/12/18 08:11:26;;;;;;;0.80;0.50;;;;;;;0.65;80.68;100190.69;1739286;81;21257;-59
2021/12/18 08:13:53;;;;;;;2.60;0.60;;;;;;;0.65;80.69;100182.75;1734851;81;21061;-58
2021/12/18 08:16:19;;;;;;;1.00;0.50;;;;;;;0.65;80.73;100186.28;1736838;81;21835;-58
2021/12/18 08:18:47;;;;;;;1.10;0.60;;;;;;;0.70;80.62;100180.52;1736864;81;21366;-58
2021/12/18 08:21:14;;;;;;;0.87;0.50;;;;;;;0.72;80.27;100190.67;1735639;81;22431;-58
2021/12/18 08:23:41;;;;;;;1.00;0.50;;;;;;;0.71;80.19;100186.26;1737444;81;21483;-58
2021/12/18 08:26:07;;;;;;;1.00;0.40;;;;;;;0.74;80.20;100191.56;1741575;81;21513;-57
2021/12/18 08:28:33;;;;;;;1.43;0.50;;;;;;;0.78;79.95;100187.13;1739801;81;21031;-58
2021/12/18 08:31:00;;;;;;;0.60;0.40;;;;;;;0.77;79.80;100181.38;1735770;81;21083;-58
2021/12/18 08:33:26;;;;;;;0.50;0.30;;;;;;;0.78;79.57;100169.90;1741816;81;21064;-58
2021/12/18 08:35:52;;;;;;;0.50;0.40;;;;;;;0.77;79.43;100184.50;1741225;81;21148;-57
2021/12/18 08:38:19;;;;;;;3.47;0.60;;;;;;;0.78;79.55;100172.98;1736903;81;21072;-58
2021/12/18 08:40:46;;;;;;;0.90;0.50;;;;;;;0.82;79.52;100166.37;1750242;81;21064;-58
2021/12/18 08:43:12;;;;;;;2.00;0.63;;;;;;;0.85;79.14;100164.17;1741710;81;21115;-58
2021/12/18 08:45:39;;;;;;;0.50;0.40;;;;;;;0.84;79.06;100162.40;1740906;81;20933;-58
2021/12/18 08:48:05;;;;;;;0.70;0.40;;;;;;;0.85;79.12;100159.72;1748565;81;21925;-58
2021/12/18 08:50:32;;;;;;;0.80;0.40;;;;;;;0.86;78.93;100156.63;1742105;81;20965;-58
2021/12/18 08:52:59;;;;;;;1.30;0.40;;;;;;;0.88;78.77;100160.16;1742481;81;20942;-58
2021/12/18 08:55:25;;;;;;;0.80;0.50;;;;;;;0.90;78.78;100159.72;1745334;81;20925;-58
2021/12/18 08:57:51;;;;;;;0.63;0.40;;;;;;;0.89;78.17;100157.95;1745740;81;20974;-58
2021/12/18 09:00:20;;;;;;;1.07;0.30;;;;;;;0.89;78.08;100153.53;1750778;81;21020;-58
2021/12/18 09:02:50;;;;;;;0.60;0.40;;;;;;;0.91;77.95;100155.75;1740728;81;20925;-58
2021/12/18 09:05:16;;;;;;;0.83;0.40;;;;;;;0.92;77.77;100154.86;1742330;80;20946;-58
2021/12/18 09:07:44;;;;;;;1.57;0.40;;;;;;;0.92;77.60;100152.22;1749361;80;20916;-59
2021/12/18 09:10:11;;;;;;;0.80;0.60;;;;;;;0.93;77.42;100157.96;1745618;80;20941;-59
2021/12/18 09:12:38;;;;;;;0.60;0.40;;;;;;;0.93;77.43;100157.08;1760905;79;21438;-57
2021/12/18 09:15:05;;;;;;;1.67;0.50;;;;;;;0.94;77.45;100161.45;1755456;79;21767;-58
2021/12/18 09:17:32;;;;;;;1.87;0.60;;;;;;;0.95;77.50;100167.20;1750574;79;20902;-59
2021/12/18 09:19:59;;;;;;;0.53;0.30;;;;;;;0.97;77.48;100168.09;1752200;79;20992;-58
2021/12/18 09:22:25;;;;;;;1.13;0.40;;;;;;;0.97;77.46;100159.70;1750954;79;21862;-58
2021/12/18 09:24:51;;;;;;;1.00;0.40;;;;;;;0.99;77.51;100161.02;1764616;78;21363;-59
2021/12/18 09:27:19;;;;;;;0.43;0.40;;;;;;;0.98;77.38;100156.16;1741779;80;21526;-58
2021/12/18 09:29:45;;;;;;;1.17;0.40;;;;;;;0.97;77.31;100160.14;1760179;80;20953;-58
2021/12/18 09:32:11;;;;;;;1.83;0.40;;;;;;;0.96;77.27;100151.30;1737515;80;20933;-58
2021/12/18 09:34:38;;;;;;;0.40;0.30;;;;;;;0.97;77.32;100142.91;1746564;79;21221;-58
2021/12/18 09:37:04;;;;;;;0.80;0.40;;;;;;;0.99;77.22;100146.44;1746272;79;21685;-59
2021/12/18 09:39:31;;;;;;;0.67;0.40;;;;;;;1.00;77.19;100150.42;1747236;79;21075;-59
2021/12/18 09:41:57;;;;;;;0.87;0.40;;;;;;;1.05;77.17;100154.36;1747993;79;21079;-58
2021/12/18 09:44:26;;;;;;;0.80;0.50;;;;;;;1.09;77.02;100146.41;1751818;79;21436;-58
2021/12/18 09:46:54;;;;;;;0.80;0.50;;;;;;;1.12;76.90;100146.82;1734080;79;21048;-59
2021/12/18 09:49:21;;;;;;;0.63;0.40;;;;;;;1.09;76.71;100146.41;1748470;79;22002;-58
2021/12/18 09:51:47;;;;;;;0.83;0.60;;;;;;;1.08;76.52;100139.78;1752808;79;21063;-58
2021/12/18 09:54:15;;;;;;;1.80;1.33;;;;;;;1.05;76.47;100145.09;1748968;79;21379;-60
2021/12/18 09:56:43;;;;;;;1.10;0.50;;;;;;;1.03;76.41;100134.92;1723270;79;21134;-58
2021/12/18 09:59:09;;;;;;;0.93;0.50;;;;;;;1.04;76.35;100140.67;1750676;79;21036;-58
2021/12/18 10:01:36;;;;;;;0.80;0.40;;;;;;;1.02;76.17;100134.04;1747418;79;21533;-58
2021/12/18 10:04:04;;;;;;;0.77;0.40;;;;;;;1.02;75.96;100138.02;1748328;79;21100;-58
2021/12/18 10:06:36;;;;;;;1.60;0.50;;;;;;;1.00;75.88;100127.00;1715216;81;21057;-58
2021/12/18 10:09:14;;;;;;;0.87;0.53;;;;;;;1.00;75.67;100127.00;1742828;79;21393;-60
2021/12/18 10:11:51;;;;;;;0.73;0.40;;;;;;;0.97;75.63;100129.21;1720178;79;21084;-58
2021/12/18 10:14:23;;;;;;;0.80;0.40;;;;;;;0.96;75.31;100125.23;1706531;81;21088;-58
2021/12/18 10:16:51;;;;;;;0.80;0.30;;;;;;;0.96;75.29;100122.14;1737678;79;22206;-59
2021/12/18 10:19:30;;;;;;;0.57;0.30;;;;;;;0.98;74.86;100117.72;1747629;79;21009;-59
2021/12/18 10:21:58;;;;;;;1.77;0.40;;;;;;;0.96;74.87;100115.95;1738952;79;21143;-58
2021/12/18 10:24:25;;;;;;;0.70;0.30;;;;;;;0.96;74.83;100114.19;1741187;79;22061;-58
2021/12/18 10:26:52;;;;;;;0.90;0.30;;;;;;;0.97;74.63;100104.47;1742231;79;21131;-57
2021/12/18 10:29:35;;;;;;;0.90;0.40;;;;;;;0.99;74.58;100097.41;1743634;79;21084;-58
2021/12/18 10:32:12;;;;;;;0.80;0.50;;;;;;;1.00;74.50;100089.89;1739322;79;22443;-58
2021/12/18 10:34:41;;;;;;;0.80;0.40;;;;;;;1.03;74.33;100089.41;1742490;79;21359;-60
2021/12/18 10:37:26;;;;;;;0.90;0.40;;;;;;;1.04;74.11;100090.30;1740257;79;21722;-58
2021/12/18 10:40:02;;;;;;;0.60;0.30;;;;;;;1.03;73.95;100089.41;1744749;79;22142;-59
2021/12/18 10:42:42;;;;;;;0.60;0.30;;;;;;;1.05;73.92;100085.00;1735162;80;22100;-58
2021/12/18 10:45:19;;;;;;;0.63;0.30;;;;;;;1.05;73.73;100084.11;1739874;79;22413;-59
2021/12/18 10:47:58;;;;;;;0.60;0.40;;;;;;;1.07;73.62;100083.23;1738762;79;20985;-58
2021/12/18 10:50:42;;;;;;;0.80;0.40;;;;;;;1.09;73.68;100085.88;1737213;80;21080;-59
2021/12/18 10:53:19;;;;;;;1.00;0.40;;;;;;;1.10;73.32;100083.22;1741637;79;21125;-59
2021/12/18 10:55:59;;;;;;;0.57;0.33;;;;;;;1.12;73.03;100089.81;1736756;79;21096;-59
2021/12/18 10:58:30;;;;;;;0.60;0.30;;;;;;;1.11;73.06;100078.77;1737201;79;21147;-60
2021/12/18 11:01:00;;;;;;;1.13;0.80;;;;;;;1.10;72.71;100081.02;1738612;79;21839;-59
2021/12/18 11:03:33;;;;;;;0.90;0.60;;;;;;;1.08;72.55;100073.51;1741686;79;21588;-59
2021/12/18 11:06:24;;;;;;;1.98;0.33;;;;;;;1.08;72.55;100076.16;1735666;79;21146;-59
2021/12/18 11:09:12;;;;;;;0.70;0.30;;;;;;;1.12;72.26;100079.21;1740637;79;22040;-59
2021/12/18 11:14:35;;;;;;;1.43;0.60;;;;;;;1.15;71.73;100081.86;1738161;79;21072;-60
2021/12/18 11:19:54;;;;;;;0.47;0.10;;;;;;;1.20;70.91;100072.54;1827381;76;26413;-61
2021/12/18 11:22:20;;;;;;;1.23;0.50;;;;;;;1.17;70.09;100073.91;1778946;78;20938;-59
2021/12/18 11:25:08;;;;;;;0.80;0.40;;;;;;;1.15;69.83;100073.91;1803477;77;21605;-59
2021/12/18 11:27:36;;;;;;;12.10;3.97;;;;;;;1.12;69.70;100071.26;1802952;77;22053;-60
2021/12/18 11:30:12;;;;;;;1.30;0.60;;;;;;;1.13;69.62;100077.88;1799196;77;21000;-59
2021/12/18 11:32:42;;;;;;;0.70;0.30;;;;;;;1.16;69.56;100077.44;1805196;77;21970;-60
2021/12/18 11:35:16;;;;;;;2.03;0.90;;;;;;;1.18;69.55;100069.92;1797619;78;21047;-60
2021/12/18 11:37:50;;;;;;;2.12;0.68;;;;;;;1.19;69.42;100066.39;1802352;77;21451;-60
2021/12/18 11:40:20;;;;;;;4.33;1.50;;;;;;;1.18;69.46;100063.30;1803962;77;20917;-59
2021/12/18 11:42:47;;;;;;;1.30;0.83;;;;;;;1.19;69.48;100055.78;1805473;77;21334;-59
2021/12/18 11:45:13;;;;;;;0.43;0.30;;;;;;;1.21;69.58;100057.95;1801449;78;21724;-60
2021/12/18 11:47:43;;;;;;;1.50;0.30;;;;;;;1.22;69.58;100053.53;1799631;77;21071;-59
2021/12/18 11:50:33;;;;;;;0.87;0.30;;;;;;;1.21;69.59;100050.00;1803070;77;21074;-59
2021/12/18 11:53:14;;;;;;;0.80;0.30;;;;;;;1.20;69.59;100046.02;1806630;78;21519;-59
2021/12/18 11:55:55;;;;;;;0.57;0.30;;;;;;;1.21;69.60;100055.30;1800992;77;20871;-59
2021/12/18 11:58:29;;;;;;;0.60;0.30;;;;;;;1.20;69.63;100049.56;1759787;79;21542;-59
2021/12/18 12:01:02;;;;;;;0.70;0.30;;;;;;;1.22;69.72;100058.39;1760640;79;20905;-58
2021/12/18 12:03:40;;;;;;;0.70;0.30;;;;;;;1.20;69.74;100044.25;1760495;79;21890;-60
2021/12/18 12:06:35;;;;;;;0.90;0.40;;;;;;;1.20;69.90;100036.74;1759932;79;20918;-59
2021/12/18 12:09:35;;;;;;;1.10;0.40;;;;;;;1.21;69.90;100039.39;1764519;79;20914;-59
2021/12/18 12:12:04;;;;;;;0.95;0.42;;;;;;;1.19;69.90;100045.62;1760626;79;20893;-59
2021/12/18 12:14:39;;;;;;;1.00;0.47;;;;;;;1.16;70.08;100043.86;1756243;79;20870;-58
2021/12/18 12:17:27;;;;;;;0.63;0.40;;;;;;;1.13;70.13;100044.74;1759314;79;21424;-60
2021/12/18 12:20:07;;;;;;;0.70;0.40;;;;;;;1.11;70.34;100042.98;1750720;79;21057;-59
2021/12/18 12:22:53;;;;;;;0.67;0.47;;;;;;;1.05;70.75;100040.37;1745759;79;21076;-59
2021/12/18 12:25:23;;;;;;;0.93;0.40;;;;;;;1.01;71.28;100046.16;1755813;79;21057;-59
2021/12/18 12:28:04;;;;;;;0.50;0.40;;;;;;;0.97;71.80;100050.14;1717831;79;21586;-59
2021/12/18 12:30:51;;;;;;;1.17;0.40;;;;;;;0.95;72.23;100053.23;1738461;79;21152;-59
2021/12/18 12:33:28;;;;;;;0.60;0.37;;;;;;;0.93;72.65;100052.38;1751820;79;20946;-59